createdAt,value
2022-10-19T00:01:30.148Z,103015.56
2022-10-19T00:03:56.662Z,103016.66
2022-10-19T00:06:27.637Z,103019.06
2022-10-19T00:09:00.266Z,103009.53
2022-10-19T00:11:28.811Z,103012.81
2022-10-19T00:13:56.830Z,103021.19
2022-10-19T00:16:30.345Z,103024.69
2022-10-19T00:18:59.021Z,103010.72
2022-10-19T00:21:26.052Z,103017.81
2022-10-19T00:23:52.829Z,103010.31
2022-10-19T00:26:19.275Z,103016.00
2022-10-19T00:28:45.811Z,103022.81
2022-10-19T00:31:16.569Z,103009.28
2022-10-19T00:33:46.486Z,103014.66
2022-10-19T00:36:28.835Z,103015.22
2022-10-19T00:38:56.424Z,103023.06
2022-10-19T00:41:25.080Z,103010.09
2022-10-19T00:44:02.776Z,103020.91
2022-10-19T00:46:32.522Z,103022.56
2022-10-19T00:49:11.206Z,103026.66
2022-10-19T00:51:40.981Z,103022.03
2022-10-19T00:54:08.893Z,103023.66
2022-10-19T00:56:39.680Z,103019.63
2022-10-19T00:59:07.929Z,103023.13
2022-10-19T01:01:35.355Z,103018.25
2022-10-19T01:04:03.702Z,103011.25
2022-10-19T01:06:31.034Z,103004.75
2022-10-19T01:08:57.453Z,103007.69
2022-10-19T01:11:31.089Z,103003.94
2022-10-19T01:14:34.616Z,102990.94
2022-10-19T01:17:28.697Z,102997.44
2022-10-19T01:20:21.250Z,102996.09
2022-10-19T01:23:16.805Z,102992.84
2022-10-19T01:25:46.197Z,102993.38
2022-10-19T01:28:31.246Z,102985.03
2022-10-19T01:31:24.050Z,102984.25
2022-10-19T01:34:03.373Z,102984.53
2022-10-19T01:36:42.003Z,102990.19
2022-10-19T01:39:08.352Z,102979.31
2022-10-19T01:41:59.906Z,102978.22
2022-10-19T01:44:35.580Z,102970.16
2022-10-19T01:47:10.783Z,102975.81
2022-10-19T01:49:49.390Z,102976.88
2022-10-19T01:52:19.027Z,102975.22
2022-10-19T01:54:50.402Z,102985.25
2022-10-19T01:57:22.796Z,102986.59
2022-10-19T01:59:50.306Z,102985.28
2022-10-19T02:02:19.799Z,102977.16
2022-10-19T02:04:49.242Z,102980.41
2022-10-19T02:07:16.471Z,102976.66
2022-10-19T02:09:42.876Z,102977.75
2022-10-19T02:12:11.333Z,102979.41
2022-10-19T02:14:43.906Z,102973.22
2022-10-19T02:17:14.681Z,102984.84
2022-10-19T02:19:43.097Z,102978.38
2022-10-19T02:22:10.102Z,102979.19
2022-10-19T02:24:36.513Z,102978.66
2022-10-19T02:27:05.529Z,102975.94
2022-10-19T02:29:34.240Z,102978.69
2022-10-19T02:32:01.761Z,102973.25
2022-10-19T02:34:28.408Z,102966.78
2022-10-19T02:36:55.626Z,102969.22
2022-10-19T02:39:22.429Z,102958.72
2022-10-19T02:41:52.178Z,102963.31
2022-10-19T02:44:23.628Z,102965.44
2022-10-19T02:47:05.269Z,102962.50
2022-10-19T02:49:36.070Z,102958.69
2022-10-19T02:52:05.938Z,102951.13
2022-10-19T02:54:32.758Z,102944.66
2022-10-19T02:56:59.323Z,102941.97
2022-10-19T02:59:26.070Z,102948.97
2022-10-19T03:01:52.842Z,102955.44
2022-10-19T03:04:19.436Z,102951.91
2022-10-19T03:06:45.883Z,102956.25
2022-10-19T03:09:12.351Z,102957.63
2022-10-19T03:11:38.774Z,102956.28
2022-10-19T03:14:05.202Z,102950.31
2022-10-19T03:16:31.755Z,102945.22
2022-10-19T03:18:58.262Z,102942.50
2022-10-19T03:21:24.752Z,102950.59
2022-10-19T03:23:51.641Z,102945.47
2022-10-19T03:26:18.204Z,102945.50
2022-10-19T03:28:44.784Z,102939.53
2022-10-19T03:31:11.555Z,102938.75
2022-10-19T03:33:38.251Z,102944.94
2022-10-19T03:36:24.490Z,102941.72
2022-10-19T03:38:52.432Z,102937.41
2022-10-19T03:41:20.636Z,102942.78
2022-10-19T03:43:47.137Z,102938.22
2022-10-19T03:46:13.709Z,102936.03
2022-10-19T03:48:40.213Z,102936.06
2022-10-19T03:51:18.581Z,102934.72
2022-10-19T03:53:46.531Z,102928.75
2022-10-19T03:56:15.321Z,102930.66
2022-10-19T03:58:43.496Z,102932.81
2022-10-19T04:01:21.956Z,102921.72
2022-10-19T04:03:52.613Z,102918.22
2022-10-19T04:06:21.962Z,102923.34
2022-10-19T04:08:50.078Z,102924.16
2022-10-19T04:11:18.789Z,102922.00
2022-10-19T04:13:48.495Z,102920.63
2022-10-19T04:16:15.006Z,102925.22
2022-10-19T04:18:41.552Z,102917.38
2022-10-19T04:21:29.535Z,102933.59
2022-10-19T04:24:17.468Z,102932.25
2022-10-19T04:26:46.883Z,102935.75
2022-10-19T04:29:14.151Z,102937.13
2022-10-19T04:31:40.978Z,102938.47
2022-10-19T04:34:07.629Z,102930.06
2022-10-19T04:36:34.731Z,102933.06
2022-10-19T04:39:01.241Z,102929.53
2022-10-19T04:41:27.779Z,102931.16
2022-10-19T04:43:58.675Z,102929.84
2022-10-19T04:46:26.774Z,102935.47
2022-10-19T04:48:53.963Z,102941.16
2022-10-19T04:51:21.334Z,102940.88
2022-10-19T04:53:48.317Z,102940.88
2022-10-19T04:56:18.584Z,102926.31
2022-10-19T04:58:45.277Z,102930.63
2022-10-19T05:01:14.423Z,102941.16
2022-10-19T05:03:41.221Z,102924.97
2022-10-19T05:06:08.611Z,102925.50
2022-10-19T05:08:36.536Z,102935.50
2022-10-19T05:11:08.482Z,102926.59
2022-10-19T05:13:35.337Z,102925.22
2022-10-19T05:16:04.472Z,102930.34
2022-10-19T05:18:30.936Z,102925.78
2022-10-19T05:21:15.832Z,102931.16
2022-10-19T05:23:42.433Z,102930.09
2022-10-19T05:26:15.454Z,102918.72
2022-10-19T05:28:42.101Z,102918.19
2022-10-19T05:31:16.679Z,102920.34
2022-10-19T05:33:43.300Z,102922.22
2022-10-19T05:36:20.797Z,102920.34
2022-10-19T05:38:49.299Z,102921.97
2022-10-19T05:41:16.615Z,102924.38
2022-10-19T05:43:43.977Z,102918.44
2022-10-19T05:46:17.933Z,102919.00
2022-10-19T05:48:44.758Z,102918.47
2022-10-19T05:51:13.172Z,102909.31
2022-10-19T05:53:40.525Z,102911.19
2022-10-19T05:56:08.871Z,102901.75
2022-10-19T05:58:35.984Z,102900.97
2022-10-19T06:01:02.792Z,102898.25
2022-10-19T06:03:30.595Z,102902.31
2022-10-19T06:05:57.997Z,102903.13
2022-10-19T06:08:25.206Z,102899.06
2022-10-19T06:10:51.880Z,102896.66
2022-10-19T06:13:19.516Z,102903.41
2022-10-19T06:15:50.783Z,102903.13
2022-10-19T06:18:17.245Z,102898.28
2022-10-19T06:20:43.726Z,102895.84
2022-10-19T06:23:10.182Z,102902.00
2022-10-19T06:25:36.929Z,102904.19
2022-10-19T06:28:03.954Z,102913.38
2022-10-19T06:30:30.405Z,102918.78
2022-10-19T06:32:59.124Z,102915.25
2022-10-19T06:35:25.750Z,102920.38
2022-10-19T06:37:52.200Z,102921.47
2022-10-19T06:40:18.723Z,102914.97
2022-10-19T06:42:45.185Z,102920.63
2022-10-19T06:45:11.634Z,102907.66
2022-10-19T06:47:38.466Z,102907.63
2022-10-19T06:50:06.870Z,102910.56
2022-10-19T06:52:34.591Z,102907.00
2022-10-19T06:55:01.822Z,102899.13
2022-10-19T06:57:28.676Z,102903.97
2022-10-19T06:59:55.497Z,102893.97
2022-10-19T07:02:22.004Z,102898.22
2022-10-19T07:04:48.521Z,102899.56
2022-10-19T07:07:15.057Z,102892.72
2022-10-19T07:09:41.814Z,102900.22
2022-10-19T07:12:10.699Z,102900.16
2022-10-19T07:14:39.663Z,102900.56
2022-10-19T07:17:07.392Z,102896.66
2022-10-19T07:19:33.992Z,102891.09
2022-10-19T07:22:00.517Z,102886.63
2022-10-19T07:24:27.512Z,102885.66
2022-10-19T07:26:54.289Z,102888.78
2022-10-19T07:29:20.858Z,102882.69
2022-10-19T07:31:47.406Z,102891.28
2022-10-19T07:34:14.582Z,102898.69
2022-10-19T07:36:48.033Z,102902.31
2022-10-19T07:39:16.894Z,102910.56
2022-10-19T07:41:44.049Z,102904.44
2022-10-19T07:44:13.408Z,102897.63
2022-10-19T07:46:42.253Z,102891.97
2022-10-19T07:49:13.198Z,102901.38
2022-10-19T07:51:39.972Z,102893.50
2022-10-19T07:54:06.491Z,102896.16
2022-10-19T07:56:33.056Z,102901.44
2022-10-19T07:59:00.471Z,102904.44
2022-10-19T08:01:32.785Z,102907.72
2022-10-19T08:06:46.683Z,102906.50
2022-10-19T08:09:27.662Z,102912.13
2022-10-19T08:11:59.622Z,102907.34
2022-10-19T08:14:26.252Z,102905.84
2022-10-19T08:16:52.787Z,102903.81
2022-10-19T08:19:19.221Z,102896.13
2022-10-19T08:21:47.129Z,102903.47
2022-10-19T08:24:15.790Z,102897.81
2022-10-19T08:26:42.558Z,102897.72
2022-10-19T08:29:13.133Z,102899.56
2022-10-19T08:31:40.927Z,102899.06
2022-10-19T08:34:07.869Z,102890.00
2022-10-19T08:36:35.607Z,102890.75
2022-10-19T08:39:04.774Z,102884.22
2022-10-19T08:41:52.442Z,102887.81
2022-10-19T08:44:52.821Z,102885.69
2022-10-19T08:47:35.463Z,102881.38
2022-10-19T08:50:14.392Z,102878.78
2022-10-19T08:52:43.253Z,102877.25
2022-10-19T08:55:19.764Z,102873.97
2022-10-19T08:57:58.131Z,102872.97
2022-10-19T09:00:36.926Z,102867.13
2022-10-19T09:03:55.311Z,102859.41
2022-10-19T09:07:01.015Z,102846.75
2022-10-19T09:09:30.716Z,102849.56
2022-10-19T09:12:04.201Z,102850.28
2022-10-19T09:14:36.452Z,102850.69
2022-10-19T09:17:11.323Z,102847.47
2022-10-19T09:19:38.040Z,102845.56
2022-10-19T09:22:08.791Z,102859.25
2022-10-19T09:25:00.959Z,102849.88
2022-10-19T09:27:36.487Z,102853.41
2022-10-19T09:30:06.938Z,102849.31
2022-10-19T09:32:36.922Z,102848.91
2022-10-19T09:35:27.900Z,102837.63
2022-10-19T09:37:55.330Z,102832.38
2022-10-19T09:40:27.358Z,102833.56
2022-10-19T09:42:58.123Z,102830.53
2022-10-19T09:45:46.446Z,102827.00
2022-10-19T09:48:38.221Z,102827.19
2022-10-19T09:51:12.774Z,102824.06
2022-10-19T09:53:45.133Z,102826.16
2022-10-19T09:56:18.978Z,102819.81
2022-10-19T09:58:50.435Z,102822.41
2022-10-19T10:01:41.914Z,102819.69
2022-10-19T10:04:14.395Z,102822.28
2022-10-19T10:06:42.855Z,102820.44
2022-10-19T10:09:19.233Z,102828.66
2022-10-19T10:11:49.549Z,102820.06
2022-10-19T10:14:28.214Z,102818.63
2022-10-19T10:16:57.147Z,102817.03
2022-10-19T10:19:28.766Z,102820.13
2022-10-19T10:21:57.973Z,102822.44
2022-10-19T10:24:30.126Z,102816.72
2022-10-19T10:27:05.121Z,102809.94
2022-10-19T10:29:36.333Z,102793.00
2022-10-19T10:32:11.241Z,102800.53
2022-10-19T10:34:58.420Z,102793.38
2022-10-19T10:37:43.257Z,102791.78
2022-10-19T10:40:31.367Z,102782.47
2022-10-19T10:43:07.505Z,102781.84
2022-10-19T10:45:42.112Z,102778.63
2022-10-19T10:48:30.340Z,102771.09
2022-10-19T10:50:59.763Z,102763.44
2022-10-19T10:53:32.178Z,102763.94
2022-10-19T10:55:58.684Z,102763.44
2022-10-19T10:58:37.182Z,102758.81
2022-10-19T11:01:07.940Z,102762.81
2022-10-19T11:03:48.874Z,102759.44
2022-10-19T11:06:17.245Z,102758.84
2022-10-19T11:08:46.442Z,102764.94
2022-10-19T11:11:26.603Z,102750.19
2022-10-19T11:14:00.157Z,102744.94
2022-10-19T11:16:39.951Z,102733.59
2022-10-19T11:19:26.004Z,102735.84
2022-10-19T11:21:57.705Z,102730.91
2022-10-19T11:24:41.931Z,102723.69
2022-10-19T11:27:22.314Z,102716.66
2022-10-19T11:29:54.800Z,102714.25
2022-10-19T11:32:36.785Z,102717.63
2022-10-19T11:35:12.063Z,102714.88
2022-10-19T11:37:49.457Z,102710.56
2022-10-19T11:41:16.445Z,102709.44
2022-10-19T11:43:46.246Z,102694.84
2022-10-19T11:46:20.930Z,102694.19
2022-10-19T11:49:18.110Z,102682.34
2022-10-19T11:51:53.455Z,102681.03
2022-10-19T11:54:38.986Z,102679.91
2022-10-19T11:57:11.842Z,102678.50
2022-10-19T12:00:15.128Z,102664.69
2022-10-19T12:03:10.843Z,102660.03
2022-10-19T12:05:46.016Z,102655.88
2022-10-19T12:08:25.996Z,102643.03
2022-10-19T12:11:01.622Z,102639.50
2022-10-19T12:13:45.865Z,102644.31
2022-10-19T12:16:14.791Z,102641.25
2022-10-19T12:19:00.863Z,102644.78
2022-10-19T12:21:33.298Z,102632.94
2022-10-19T12:24:03.507Z,102621.84
2022-10-19T12:26:34.714Z,102618.94
2022-10-19T12:29:06.110Z,102619.41
2022-10-19T12:31:33.414Z,102618.47
2022-10-19T12:34:18.255Z,102604.97
2022-10-19T12:36:50.384Z,102601.28
2022-10-19T12:39:22.741Z,102600.00
2022-10-19T12:42:30.411Z,102599.84
2022-10-19T12:45:27.047Z,102585.28
2022-10-19T12:48:20.786Z,102570.31
2022-10-19T12:50:50.279Z,102569.19
2022-10-19T12:53:30.695Z,102566.63
2022-10-19T12:56:09.725Z,102550.72
2022-10-19T12:58:39.464Z,102550.59
2022-10-19T13:01:13.520Z,102549.75
2022-10-19T13:03:42.719Z,102539.97
2022-10-19T13:06:18.137Z,102543.19
2022-10-19T13:08:53.927Z,102532.41
2022-10-19T13:11:21.574Z,102525.50
2022-10-19T13:14:00.093Z,102522.44
2022-10-19T13:16:29.500Z,102520.69
2022-10-19T13:18:59.094Z,102522.75
2022-10-19T13:21:47.359Z,102521.44
2022-10-19T13:24:25.959Z,102509.47
2022-10-19T13:27:25.397Z,102507.81
2022-10-19T13:29:52.184Z,102510.91
2022-10-19T13:32:37.773Z,102511.53
2022-10-19T13:35:23.179Z,102501.34
2022-10-19T13:38:11.523Z,102499.88
2022-10-19T13:40:55.870Z,102489.75
2022-10-19T13:43:22.233Z,102504.72
2022-10-19T13:46:05.255Z,102493.88
2022-10-19T13:49:16.093Z,102483.72
2022-10-19T13:52:16.331Z,102482.41
2022-10-19T13:55:16.966Z,102486.69
2022-10-19T13:58:02.888Z,102482.69
2022-10-19T14:00:47.309Z,102479.22
2022-10-19T14:04:05.471Z,102486.38
2022-10-19T14:06:46.322Z,102483.22
2022-10-19T14:09:38.676Z,102488.16
2022-10-19T14:12:18.758Z,102491.03
2022-10-19T14:14:45.541Z,102483.25
2022-10-19T14:17:21.364Z,102486.78
2022-10-19T14:19:51.957Z,102485.00
2022-10-19T14:22:23.457Z,102477.47
2022-10-19T14:24:49.930Z,102489.78
2022-10-19T14:27:21.994Z,102492.56
2022-10-19T14:29:51.194Z,102493.41
2022-10-19T14:32:21.027Z,102476.72
2022-10-19T14:34:49.066Z,102463.25
2022-10-19T14:37:26.872Z,102473.56
2022-10-19T14:40:26.560Z,102467.78
2022-10-19T14:42:55.734Z,102474.81
2022-10-19T14:45:30.859Z,102459.44
2022-10-19T14:48:03.029Z,102461.78
2022-10-19T14:50:41.828Z,102455.84
2022-10-19T14:53:20.238Z,102455.38
2022-10-19T14:55:48.501Z,102451.16
2022-10-19T14:58:20.195Z,102441.38
2022-10-19T15:00:49.506Z,102445.31
2022-10-19T15:03:26.959Z,102443.72
2022-10-19T15:06:00.745Z,102432.19
2022-10-19T15:08:42.527Z,102422.88
2022-10-19T15:11:23.010Z,102427.31
2022-10-19T15:13:58.403Z,102418.16
2022-10-19T15:16:42.097Z,102418.84
2022-10-19T15:19:32.270Z,102414.84
2022-10-19T15:22:18.576Z,102411.63
2022-10-19T15:25:19.430Z,102405.78
2022-10-19T15:27:48.997Z,102402.56
2022-10-19T15:30:18.471Z,102395.34
2022-10-19T15:32:47.537Z,102396.94
2022-10-19T15:35:25.457Z,102389.47
2022-10-19T15:38:01.445Z,102392.03
2022-10-19T15:40:38.548Z,102386.66
2022-10-19T15:43:29.398Z,102379.81
2022-10-19T15:46:01.051Z,102379.88
2022-10-19T15:48:44.419Z,102378.44
2022-10-19T15:51:26.108Z,102384.91
2022-10-19T15:53:56.598Z,102383.34
2022-10-19T15:56:25.447Z,102381.44
2022-10-19T15:58:54.641Z,102374.91
2022-10-19T16:01:24.532Z,102371.69
2022-10-19T16:03:51.000Z,102364.16
2022-10-19T16:06:19.222Z,102360.00
2022-10-19T16:08:46.248Z,102365.34
2022-10-19T16:11:17.930Z,102359.25
2022-10-19T16:13:45.425Z,102350.94
2022-10-19T16:16:24.512Z,102346.28
2022-10-19T16:18:52.289Z,102339.13
2022-10-19T16:21:22.641Z,102351.78
2022-10-19T16:23:49.314Z,102345.53
2022-10-19T16:26:17.040Z,102339.47
2022-10-19T16:28:44.752Z,102337.31
2022-10-19T16:31:11.286Z,102338.13
2022-10-19T16:33:37.811Z,102340.38
2022-10-19T16:36:06.531Z,102333.47
2022-10-19T16:38:33.883Z,102336.88
2022-10-19T16:41:09.025Z,102332.25
2022-10-19T16:43:36.469Z,102330.94
2022-10-19T16:46:03.942Z,102331.75
2022-10-19T16:48:30.970Z,102326.94
2022-10-19T16:51:07.005Z,102323.25
2022-10-19T16:53:34.542Z,102311.75
2022-10-19T16:56:05.586Z,102312.41
2022-10-19T16:58:32.034Z,102310.19
2022-10-19T17:01:01.430Z,102307.94
2022-10-19T17:03:30.761Z,102300.91
2022-10-19T17:05:57.220Z,102297.38
2022-10-19T17:08:36.584Z,102300.44
2022-10-19T17:11:11.553Z,102306.03
2022-10-19T17:13:38.027Z,102296.75
2022-10-19T17:16:06.021Z,102293.88
2022-10-19T17:18:32.841Z,102291.66
2022-10-19T17:21:20.413Z,102282.03
2022-10-19T17:23:47.215Z,102278.53
2022-10-19T17:26:13.837Z,102287.19
2022-10-19T17:28:40.612Z,102273.88
2022-10-19T17:31:13.495Z,102284.63
2022-10-19T17:33:41.437Z,102290.53
2022-10-19T17:36:18.894Z,102283.81
2022-10-19T17:38:46.585Z,102270.56
2022-10-19T17:41:16.638Z,102278.53
2022-10-19T17:43:45.288Z,102288.63
2022-10-19T17:46:14.926Z,102280.97
2022-10-19T17:48:43.406Z,102278.06
2022-10-19T17:51:24.801Z,102277.91
2022-10-19T17:53:51.422Z,102267.34
2022-10-19T17:56:20.599Z,102279.34
2022-10-19T17:58:48.314Z,102276.47
2022-10-19T18:01:16.699Z,102285.75
2022-10-19T18:03:43.809Z,102279.84
2022-10-19T18:06:15.748Z,102284.16
2022-10-19T18:08:45.587Z,102283.97
2022-10-19T18:11:19.459Z,102281.25
2022-10-19T18:13:46.579Z,102288.63
2022-10-19T18:16:16.770Z,102299.34
2022-10-19T18:18:46.124Z,102299.34
2022-10-19T18:21:15.030Z,102297.28
2022-10-19T18:23:42.193Z,102290.53
2022-10-19T18:26:11.090Z,102296.31
2022-10-19T18:28:37.986Z,102285.28
2022-10-19T18:31:21.604Z,102280.16
2022-10-19T18:33:49.910Z,102274.22
2022-10-19T18:36:16.573Z,102275.34
2022-10-19T18:38:43.130Z,102283.81
2022-10-19T18:43:43.562Z,102262.22
2022-10-19T18:46:10.217Z,102252.78
2022-10-19T18:48:38.033Z,102254.06
2022-10-19T18:51:07.603Z,102244.63
2022-10-19T18:53:34.809Z,102239.97
2022-10-19T18:56:04.864Z,102245.75
2022-10-19T18:58:31.717Z,102237.25
2022-10-19T19:01:07.035Z,102253.91
2022-10-19T19:03:34.877Z,102259.63
2022-10-19T19:06:02.888Z,102263.94
2022-10-19T19:08:29.679Z,102243.97
2022-10-19T19:10:57.570Z,102233.22
2022-10-19T19:13:24.053Z,102226.84
2022-10-19T19:15:58.628Z,102224.59
2022-10-19T19:18:25.784Z,102220.75
2022-10-19T19:20:52.790Z,102220.91
2022-10-19T19:23:19.530Z,102217.72
2022-10-19T19:25:46.626Z,102211.16
2022-10-19T19:28:13.191Z,102201.72
2022-10-19T19:30:45.062Z,102181.44
2022-10-19T19:33:12.276Z,102169.59
2022-10-19T19:35:42.984Z,102176.94
2022-10-19T19:38:10.469Z,102173.75
2022-10-19T19:40:41.797Z,102165.41
2022-10-19T19:43:09.645Z,102160.63
2022-10-19T19:45:37.135Z,102163.81
2022-10-19T19:48:05.136Z,102157.75
2022-10-19T19:50:32.158Z,102153.59
2022-10-19T19:52:59.267Z,102147.19
2022-10-19T19:55:26.868Z,102143.19
2022-10-19T19:57:54.471Z,102133.91
2022-10-19T20:00:22.920Z,102132.97
2022-10-19T20:02:57.245Z,102124.63
2022-10-19T20:05:25.452Z,102124.16
2022-10-19T20:07:52.798Z,102118.25
2022-10-19T20:10:19.295Z,102112.34
2022-10-19T20:12:47.174Z,102115.69
2022-10-19T20:15:15.869Z,102114.09
2022-10-19T20:17:42.804Z,102110.75
2022-10-19T20:20:11.870Z,102119.03
2022-10-19T20:22:38.774Z,102113.13
2022-10-19T20:25:06.217Z,102109.16
2022-10-19T20:27:36.547Z,102105.63
2022-10-19T20:30:04.035Z,102109.97
2022-10-19T20:32:30.818Z,102102.09
2022-10-19T20:34:57.374Z,102098.91
2022-10-19T20:37:24.159Z,102093.16
2022-10-19T20:39:50.706Z,102082.59
2022-10-19T20:42:18.814Z,102075.25
2022-10-19T20:44:45.515Z,102064.06
2022-10-19T20:47:12.017Z,102058.50
2022-10-19T20:49:38.630Z,102054.19
2022-10-19T20:52:05.165Z,102053.53
2022-10-19T20:54:32.051Z,102050.81
2022-10-19T20:56:59.253Z,102048.91
2022-10-19T20:59:27.750Z,102052.13
2022-10-19T21:01:56.648Z,102058.03
2022-10-19T21:04:24.832Z,102059.47
2022-10-19T21:06:52.503Z,102073.03
2022-10-19T21:09:23.171Z,102068.88
2022-10-19T21:11:51.128Z,102071.41
2022-10-19T21:14:23.737Z,102065.97
2022-10-19T21:16:53.575Z,102060.41
2022-10-19T21:19:25.175Z,102062.00
2022-10-19T21:21:57.445Z,102068.09
2022-10-19T21:24:36.080Z,102058.63
2022-10-19T21:27:05.234Z,102046.50
2022-10-19T21:29:32.014Z,102041.56
2022-10-19T21:31:58.548Z,102043.31
2022-10-19T21:34:27.866Z,102044.25
2022-10-19T21:36:54.945Z,102038.22
2022-10-19T21:39:21.905Z,102038.69
2022-10-19T21:41:49.095Z,102038.03
2022-10-19T21:44:17.493Z,102039.34
2022-10-19T21:46:46.871Z,102040.13
2022-10-19T21:49:13.510Z,102032.47
2022-10-19T21:51:46.814Z,102020.47
2022-10-19T21:54:19.270Z,102018.09
2022-10-19T21:56:46.578Z,102014.25
2022-10-19T21:59:13.838Z,102020.63
2022-10-19T22:01:41.855Z,102016.16
2022-10-19T22:04:18.568Z,102008.69
2022-10-19T22:06:45.185Z,102001.63
2022-10-19T22:09:17.320Z,102007.38
2022-10-19T22:11:43.866Z,102013.13
2022-10-19T22:14:12.511Z,102007.03
2022-10-19T22:16:40.203Z,102005.16
2022-10-19T22:19:06.994Z,102000.53
2022-10-19T22:21:34.500Z,101990.13
2022-10-19T22:24:06.803Z,101991.09
2022-10-19T22:26:36.934Z,102000.03
2022-10-19T22:29:04.549Z,101990.63
2022-10-19T22:31:32.685Z,101986.94
2022-10-19T22:34:05.198Z,101989.50
2022-10-19T22:36:31.841Z,101979.91
2022-10-19T22:38:58.299Z,101982.13
2022-10-19T22:42:21.147Z,101964.72
2022-10-19T22:44:47.579Z,101959.16
2022-10-19T22:47:14.014Z,101958.34
2022-10-19T22:49:40.454Z,101949.09
2022-10-19T22:52:06.962Z,101931.22
2022-10-19T22:54:33.386Z,101933.13
2022-10-19T22:56:59.925Z,101926.91
2022-10-19T22:59:26.364Z,101926.25
2022-10-19T23:01:52.947Z,101921.94
2022-10-19T23:04:19.551Z,101931.22
2022-10-19T23:06:45.977Z,101925.94
2022-10-19T23:09:12.513Z,101924.50
2022-10-19T23:11:38.925Z,101928.16
2022-10-19T23:14:05.385Z,101920.81
2022-10-19T23:16:31.906Z,101915.56
2022-10-19T23:18:58.444Z,101911.22
2022-10-19T23:21:24.944Z,101907.72
2022-10-19T23:23:51.429Z,101907.56
2022-10-19T23:26:20.441Z,101906.78
2022-10-19T23:28:49.720Z,101901.03
2022-10-19T23:31:19.291Z,101894.94
2022-10-19T23:33:46.809Z,101891.75
2022-10-19T23:36:16.344Z,101893.34
2022-10-19T23:38:44.571Z,101885.22
2022-10-19T23:41:11.787Z,101883.63
2022-10-19T23:43:38.281Z,101888.13
2022-10-19T23:46:05.374Z,101887.78
2022-10-19T23:48:32.045Z,101866.72
2022-10-19T23:50:59.980Z,101864.81
2022-10-19T23:53:27.703Z,101858.41
2022-10-19T23:56:05.939Z,101859.06
2022-10-19T23:58:32.525Z,101858.72
